sensor_id;sensor_type;location;lat;lon;timestamp;pressure;altitude;pressure_sealevel;temperature;humidity
10652;BME280;5374;42.742;23.266;2023-04-28T00:01:59;95670.66;;;6.53;59.68
10652;BME280;5374;42.742;23.266;2023-04-28T00:04:46;95693.00;;;6.87;59.12
10652;BME280;5374;42.742;23.266;2023-04-28T00:07:35;95684.00;;;6.76;59.45
10652;BME280;5374;42.742;23.266;2023-04-28T00:10:22;95579.41;;;6.09;59.52
10652;BME280;5374;42.742;23.266;2023-04-28T00:13:09;95640.34;;;6.37;59.74
10652;BME280;5374;42.742;23.266;2023-04-28T00:15:59;95633.88;;;6.33;59.89
10652;BME280;5374;42.742;23.266;2023-04-28T00:18:46;95631.34;;;6.27;60.00
10652;BME280;5374;42.742;23.266;2023-04-28T00:21:33;95642.53;;;6.22;60.07
10652;BME280;5374;42.742;23.266;2023-04-28T00:24:21;95605.47;;;5.92;60.13
10652;BME280;5374;42.742;23.266;2023-04-28T00:27:09;95631.59;;;6.18;60.50
10652;BME280;5374;42.742;23.266;2023-04-28T00:29:56;95631.09;;;6.10;60.67
10652;BME280;5374;42.742;23.266;2023-04-28T00:32:43;95623.44;;;6.02;60.34
10652;BME280;5374;42.742;23.266;2023-04-28T00:35:30;95653.56;;;6.12;60.57
10652;BME280;5374;42.742;23.266;2023-04-28T00:38:17;95700.78;;;6.39;60.67
10652;BME280;5374;42.742;23.266;2023-04-28T00:41:05;95700.41;;;6.35;60.44
10652;BME280;5374;42.742;23.266;2023-04-28T00:43:52;95645.63;;;5.88;61.05
10652;BME280;5374;42.742;23.266;2023-04-28T00:46:40;95647.91;;;5.84;61.18
10652;BME280;5374;42.742;23.266;2023-04-28T00:49:27;95659.84;;;5.87;60.97
10652;BME280;5374;42.742;23.266;2023-04-28T00:52:14;95670.44;;;5.80;61.04
10652;BME280;5374;42.742;23.266;2023-04-28T00:55:03;95658.03;;;5.56;61.09
10652;BME280;5374;42.742;23.266;2023-04-28T00:57:54;95654.88;;;5.72;61.13
10652;BME280;5374;42.742;23.266;2023-04-28T01:00:42;95716.31;;;6.04;61.24
10652;BME280;5374;42.742;23.266;2023-04-28T01:03:29;95712.47;;;6.00;61.12
10652;BME280;5374;42.742;23.266;2023-04-28T01:06:19;95641.66;;;5.47;61.74
10652;BME280;5374;42.742;23.266;2023-04-28T01:09:06;95666.09;;;5.61;61.79
10652;BME280;5374;42.742;23.266;2023-04-28T01:11:53;95657.44;;;5.54;62.01
10652;BME280;5374;42.742;23.266;2023-04-28T01:14:42;95661.63;;;5.30;62.22
10652;BME280;5374;42.742;23.266;2023-04-28T01:17:29;95722.28;;;5.86;62.49
10652;BME280;5374;42.742;23.266;2023-04-28T01:20:17;95700.25;;;5.74;62.22
10652;BME280;5374;42.742;23.266;2023-04-28T01:23:04;95709.78;;;5.75;62.30
10652;BME280;5374;42.742;23.266;2023-04-28T01:25:54;95640.06;;;5.08;62.42
10652;BME280;5374;42.742;23.266;2023-04-28T01:28:41;95648.81;;;5.40;62.43
10652;BME280;5374;42.742;23.266;2023-04-28T01:31:29;95719.47;;;5.81;62.45
10652;BME280;5374;42.742;23.266;2023-04-28T01:34:17;95648.84;;;5.33;62.51
10652;BME280;5374;42.742;23.266;2023-04-28T01:37:04;95708.38;;;5.72;62.52
10652;BME280;5374;42.742;23.266;2023-04-28T01:39:51;95724.38;;;5.71;62.62
10652;BME280;5374;42.742;23.266;2023-04-28T01:42:40;95718.31;;;5.70;62.56
10652;BME280;5374;42.742;23.266;2023-04-28T01:45:27;95671.72;;;5.33;62.53
10652;BME280;5374;42.742;23.266;2023-04-28T01:48:15;95680.47;;;5.27;62.62
10652;BME280;5374;42.742;23.266;2023-04-28T01:51:03;95658.59;;;5.26;62.84
10652;BME280;5374;42.742;23.266;2023-04-28T01:53:50;95679.88;;;5.25;62.66
10652;BME280;5374;42.742;23.266;2023-04-28T01:56:37;95671.34;;;5.29;62.61
10652;BME280;5374;42.742;23.266;2023-04-28T01:59:25;95742.31;;;5.56;62.67
10652;BME280;5374;42.742;23.266;2023-04-28T02:02:13;95655.63;;;5.16;62.90
10652;BME280;5374;42.742;23.266;2023-04-28T02:05:00;95623.59;;;4.74;62.76
10652;BME280;5374;42.742;23.266;2023-04-28T02:07:47;95661.75;;;5.03;62.78
10652;BME280;5374;42.742;23.266;2023-04-28T02:10:34;95672.03;;;5.11;63.11
10652;BME280;5374;42.742;23.266;2023-04-28T02:13:21;95686.63;;;5.14;63.02
10652;BME280;5374;42.742;23.266;2023-04-28T02:16:09;95737.53;;;5.39;63.30
10652;BME280;5374;42.742;23.266;2023-04-28T02:18:56;95674.50;;;5.00;63.42
10652;BME280;5374;42.742;23.266;2023-04-28T02:21:43;95678.34;;;4.97;63.43
10652;BME280;5374;42.742;23.266;2023-04-28T02:24:34;95678.97;;;4.99;63.59
10652;BME280;5374;42.742;23.266;2023-04-28T02:27:21;95683.41;;;4.99;63.64
10652;BME280;5374;42.742;23.266;2023-04-28T02:30:08;95704.03;;;5.08;63.66
10652;BME280;5374;42.742;23.266;2023-04-28T02:32:57;95743.63;;;5.33;63.44
10652;BME280;5374;42.742;23.266;2023-04-28T02:35:44;95692.50;;;5.03;63.50
10652;BME280;5374;42.742;23.266;2023-04-28T02:38:31;95703.28;;;4.95;63.38
10652;BME280;5374;42.742;23.266;2023-04-28T02:41:18;95634.78;;;4.63;63.38
10652;BME280;5374;42.742;23.266;2023-04-28T02:44:05;95748.91;;;5.33;63.62
10652;BME280;5374;42.742;23.266;2023-04-28T02:46:52;95699.28;;;4.79;63.72
10652;BME280;5374;42.742;23.266;2023-04-28T02:49:41;95748.91;;;5.33;63.60
10652;BME280;5374;42.742;23.266;2023-04-28T02:52:28;95756.19;;;5.31;63.61
10652;BME280;5374;42.742;23.266;2023-04-28T02:55:15;95758.81;;;5.31;63.77
10652;BME280;5374;42.742;23.266;2023-04-28T02:58:08;95701.69;;;4.94;63.62
10652;BME280;5374;42.742;23.266;2023-04-28T03:00:55;95757.22;;;5.30;63.56
10652;BME280;5374;42.742;23.266;2023-04-28T03:03:43;95701.06;;;4.92;63.61
10652;BME280;5374;42.742;23.266;2023-04-28T03:06:31;95767.13;;;5.35;63.08
10652;BME280;5374;42.742;23.266;2023-04-28T03:09:18;95712.16;;;5.00;62.77
10652;BME280;5374;42.742;23.266;2023-04-28T03:12:06;95701.47;;;4.89;62.74
10652;BME280;5374;42.742;23.266;2023-04-28T03:14:53;95728.34;;;5.04;62.69
10652;BME280;5374;42.742;23.266;2023-04-28T03:17:40;95775.84;;;5.29;62.83
10652;BME280;5374;42.742;23.266;2023-04-28T03:20:28;95719.06;;;4.95;62.99
10652;BME280;5374;42.742;23.266;2023-04-28T03:23:16;95787.78;;;5.31;63.29
10652;BME280;5374;42.742;23.266;2023-04-28T03:26:03;95779.53;;;5.14;63.36
10652;BME280;5374;42.742;23.266;2023-04-28T03:28:50;95734.25;;;4.93;63.56
10652;BME280;5374;42.742;23.266;2023-04-28T03:31:37;95735.47;;;4.97;63.67
10652;BME280;5374;42.742;23.266;2023-04-28T03:34:24;95805.81;;;5.34;63.67
10652;BME280;5374;42.742;23.266;2023-04-28T03:37:12;95753.88;;;4.97;63.35
10652;BME280;5374;42.742;23.266;2023-04-28T03:40:00;95765.78;;;5.06;63.21
10652;BME280;5374;42.742;23.266;2023-04-28T03:42:47;95772.06;;;5.11;63.11
10652;BME280;5374;42.742;23.266;2023-04-28T03:45:34;95757.09;;;5.05;63.19
10652;BME280;5374;42.742;23.266;2023-04-28T03:48:22;95758.75;;;4.87;62.90
10652;BME280;5374;42.742;23.266;2023-04-28T03:51:09;95762.00;;;4.89;62.96
10652;BME280;5374;42.742;23.266;2023-04-28T03:53:56;95829.03;;;5.57;62.68
10652;BME280;5374;42.742;23.266;2023-04-28T03:56:45;95832.22;;;5.66;62.37
10652;BME280;5374;42.742;23.266;2023-04-28T03:59:32;95778.28;;;5.24;62.21
10652;BME280;5374;42.742;23.266;2023-04-28T04:02:19;95778.41;;;5.48;61.49
10652;BME280;5374;42.742;23.266;2023-04-28T04:05:07;95834.44;;;6.13;61.47
10652;BME280;5374;42.742;23.266;2023-04-28T04:07:54;95783.56;;;6.38;60.10
10652;BME280;5374;42.742;23.266;2023-04-28T04:10:41;95796.28;;;7.34;57.22
10652;BME280;5374;42.742;23.266;2023-04-28T04:13:29;95763.91;;;8.70;52.16
10652;BME280;5374;42.742;23.266;2023-04-28T04:16:16;95845.03;;;11.33;46.93
10652;BME280;5374;42.742;23.266;2023-04-28T04:19:03;95779.72;;;12.93;42.40
10652;BME280;5374;42.742;23.266;2023-04-28T04:21:51;95831.25;;;15.47;38.32
10652;BME280;5374;42.742;23.266;2023-04-28T04:24:38;95856.94;;;17.55;34.93
10652;BME280;5374;42.742;23.266;2023-04-28T04:27:26;95844.81;;;19.28;31.74
10652;BME280;5374;42.742;23.266;2023-04-28T04:30:17;95852.28;;;20.87;29.82
10652;BME280;5374;42.742;23.266;2023-04-28T04:33:09;95856.41;;;22.44;28.08
10652;BME280;5374;42.742;23.266;2023-04-28T04:35:59;95873.53;;;23.83;26.48
10652;BME280;5374;42.742;23.266;2023-04-28T04:38:47;95866.03;;;24.85;25.03
10652;BME280;5374;42.742;23.266;2023-04-28T04:41:35;95870.19;;;25.99;23.59
10652;BME280;5374;42.742;23.266;2023-04-28T04:44:24;95858.56;;;26.72;22.43
10652;BME280;5374;42.742;23.266;2023-04-28T04:47:13;95885.94;;;27.96;21.43
10652;BME280;5374;42.742;23.266;2023-04-28T04:50:01;95873.09;;;28.12;20.98
10652;BME280;5374;42.742;23.266;2023-04-28T04:52:49;95882.47;;;29.44;20.16
10652;BME280;5374;42.742;23.266;2023-04-28T04:55:36;95888.59;;;30.41;18.99
10652;BME280;5374;42.742;23.266;2023-04-28T04:58:23;95868.84;;;31.30;18.42
10652;BME280;5374;42.742;23.266;2023-04-28T05:01:11;95884.34;;;32.53;17.86
10652;BME280;5374;42.742;23.266;2023-04-28T05:04:00;95891.19;;;33.32;16.93
10652;BME280;5374;42.742;23.266;2023-04-28T05:06:48;95904.13;;;34.21;16.48
10652;BME280;5374;42.742;23.266;2023-04-28T05:09:36;95902.28;;;34.79;16.23
10652;BME280;5374;42.742;23.266;2023-04-28T05:12:23;95899.81;;;35.45;15.20
10652;BME280;5374;42.742;23.266;2023-04-28T05:15:10;95893.53;;;36.21;15.12
10652;BME280;5374;42.742;23.266;2023-04-28T05:17:58;95863.84;;;36.84;14.34
10652;BME280;5374;42.742;23.266;2023-04-28T05:20:46;95859.19;;;37.52;14.10
10652;BME280;5374;42.742;23.266;2023-04-28T05:23:34;95874.06;;;37.69;13.76
10652;BME280;5374;42.742;23.266;2023-04-28T05:26:21;95866.97;;;37.68;13.94
10652;BME280;5374;42.742;23.266;2023-04-28T05:29:08;95860.06;;;38.37;13.45
10652;BME280;5374;42.742;23.266;2023-04-28T05:31:55;95871.16;;;39.11;13.50
10652;BME280;5374;42.742;23.266;2023-04-28T05:34:42;95867.16;;;39.55;12.74
10652;BME280;5374;42.742;23.266;2023-04-28T05:37:31;95859.78;;;39.84;12.88
10652;BME280;5374;42.742;23.266;2023-04-28T05:40:18;95859.50;;;39.39;12.97
10652;BME280;5374;42.742;23.266;2023-04-28T05:43:05;95856.91;;;39.52;12.87
10652;BME280;5374;42.742;23.266;2023-04-28T05:45:52;95847.25;;;39.56;12.70
10652;BME280;5374;42.742;23.266;2023-04-28T05:48:39;95855.19;;;39.15;12.49
10652;BME280;5374;42.742;23.266;2023-04-28T05:51:26;95847.34;;;38.13;13.15
10652;BME280;5374;42.742;23.266;2023-04-28T05:54:15;95847.53;;;36.48;14.10
10652;BME280;5374;42.742;23.266;2023-04-28T05:57:02;95859.28;;;34.85;15.46
10652;BME280;5374;42.742;23.266;2023-04-28T05:59:49;95860.19;;;33.49;16.25
10652;BME280;5374;42.742;23.266;2023-04-28T06:02:36;95857.06;;;31.97;17.07
10652;BME280;5374;42.742;23.266;2023-04-28T06:05:26;95850.91;;;30.57;18.18
10652;BME280;5374;42.742;23.266;2023-04-28T06:08:13;95858.75;;;29.32;18.83
10652;BME280;5374;42.742;23.266;2023-04-28T06:11:02;95853.03;;;28.36;19.93
10652;BME280;5374;42.742;23.266;2023-04-28T06:13:49;95856.34;;;27.98;20.09
10652;BME280;5374;42.742;23.266;2023-04-28T06:16:36;95860.66;;;27.15;20.90
10652;BME280;5374;42.742;23.266;2023-04-28T06:19:24;95857.09;;;26.62;21.30
10652;BME280;5374;42.742;23.266;2023-04-28T06:22:11;95865.91;;;26.22;22.52
10652;BME280;5374;42.742;23.266;2023-04-28T06:24:58;95852.84;;;25.92;22.44
10652;BME280;5374;42.742;23.266;2023-04-28T06:27:47;95853.16;;;25.57;23.86
10652;BME280;5374;42.742;23.266;2023-04-28T06:30:34;95859.13;;;25.17;23.80
10652;BME280;5374;42.742;23.266;2023-04-28T06:33:21;95856.97;;;24.81;23.69
10652;BME280;5374;42.742;23.266;2023-04-28T06:36:08;95838.72;;;24.61;24.53
10652;BME280;5374;42.742;23.266;2023-04-28T06:38:58;95853.47;;;24.51;24.35
10652;BME280;5374;42.742;23.266;2023-04-28T06:41:45;95852.22;;;24.11;23.98
10652;BME280;5374;42.742;23.266;2023-04-28T06:44:34;95835.06;;;23.90;24.61
10652;BME280;5374;42.742;23.266;2023-04-28T06:47:21;95842.56;;;23.75;24.55
10652;BME280;5374;42.742;23.266;2023-04-28T06:50:09;95843.41;;;23.67;25.88
10652;BME280;5374;42.742;23.266;2023-04-28T06:52:56;95852.03;;;23.61;25.65
10652;BME280;5374;42.742;23.266;2023-04-28T06:55:44;95849.16;;;23.40;25.80
10652;BME280;5374;42.742;23.266;2023-04-28T06:58:31;95853.63;;;23.36;25.38
10652;BME280;5374;42.742;23.266;2023-04-28T07:01:20;95852.19;;;23.38;24.66
10652;BME280;5374;42.742;23.266;2023-04-28T07:04:07;95841.53;;;23.25;24.33
10652;BME280;5374;42.742;23.266;2023-04-28T07:06:54;95841.88;;;22.97;23.98
10652;BME280;5374;42.742;23.266;2023-04-28T07:09:41;95845.97;;;22.86;25.09
10652;BME280;5374;42.742;23.266;2023-04-28T07:12:28;95844.88;;;22.87;25.70
10652;BME280;5374;42.742;23.266;2023-04-28T07:15:15;95853.50;;;23.15;25.50
10652;BME280;5374;42.742;23.266;2023-04-28T07:18:04;95845.03;;;23.16;24.07
10652;BME280;5374;42.742;23.266;2023-04-28T07:20:52;95837.56;;;22.96;23.84
10652;BME280;5374;42.742;23.266;2023-04-28T07:23:39;95841.38;;;23.21;24.58
10652;BME280;5374;42.742;23.266;2023-04-28T07:26:26;95833.72;;;23.06;24.62
10652;BME280;5374;42.742;23.266;2023-04-28T07:29:13;95823.22;;;23.04;25.50
10652;BME280;5374;42.742;23.266;2023-04-28T07:32:01;95835.97;;;22.95;25.36
10652;BME280;5374;42.742;23.266;2023-04-28T07:34:51;95836.13;;;23.07;25.13
10652;BME280;5374;42.742;23.266;2023-04-28T07:37:38;95835.16;;;23.21;24.70
10652;BME280;5374;42.742;23.266;2023-04-28T07:40:26;95835.31;;;23.15;23.04
10652;BME280;5374;42.742;23.266;2023-04-28T07:43:14;95837.06;;;23.11;23.25
10652;BME280;5374;42.742;23.266;2023-04-28T07:46:01;95818.59;;;22.96;25.48
10652;BME280;5374;42.742;23.266;2023-04-28T07:48:48;95836.44;;;23.14;24.12
10652;BME280;5374;42.742;23.266;2023-04-28T07:51:37;95832.47;;;23.03;25.49
10652;BME280;5374;42.742;23.266;2023-04-28T07:54:24;95837.19;;;22.72;24.32
10652;BME280;5374;42.742;23.266;2023-04-28T07:57:12;95839.50;;;22.30;26.07
10652;BME280;5374;42.742;23.266;2023-04-28T07:59:59;95836.22;;;22.02;24.67
10652;BME280;5374;42.742;23.266;2023-04-28T08:02:46;95832.19;;;22.00;25.05
10652;BME280;5374;42.742;23.266;2023-04-28T08:05:33;95840.56;;;22.12;24.79
10652;BME280;5374;42.742;23.266;2023-04-28T08:08:22;95836.25;;;22.11;25.90
10652;BME280;5374;42.742;23.266;2023-04-28T08:11:09;95836.59;;;22.18;24.07
10652;BME280;5374;42.742;23.266;2023-04-28T08:13:56;95839.81;;;21.98;24.59
10652;BME280;5374;42.742;23.266;2023-04-28T08:16:46;95836.34;;;21.66;25.40
10652;BME280;5374;42.742;23.266;2023-04-28T08:19:34;95838.66;;;21.28;24.92
10652;BME280;5374;42.742;23.266;2023-04-28T08:22:21;95836.31;;;21.35;27.36
10652;BME280;5374;42.742;23.266;2023-04-28T08:25:09;95835.34;;;21.31;24.75
10652;BME280;5374;42.742;23.266;2023-04-28T08:27:57;95824.63;;;21.48;25.07
10652;BME280;5374;42.742;23.266;2023-04-28T08:30:46;95828.81;;;21.55;25.99
10652;BME280;5374;42.742;23.266;2023-04-28T08:33:33;95837.34;;;21.48;26.11
10652;BME280;5374;42.742;23.266;2023-04-28T08:36:20;95833.03;;;21.47;26.23
10652;BME280;5374;42.742;23.266;2023-04-28T08:39:08;95830.50;;;21.42;27.41
10652;BME280;5374;42.742;23.266;2023-04-28T08:41:56;95822.88;;;21.44;27.78
10652;BME280;5374;42.742;23.266;2023-04-28T08:44:44;95822.75;;;21.27;26.68
10652;BME280;5374;42.742;23.266;2023-04-28T08:47:34;95824.47;;;21.45;25.89
10652;BME280;5374;42.742;23.266;2023-04-28T08:50:23;95824.19;;;21.55;26.82
10652;BME280;5374;42.742;23.266;2023-04-28T08:53:12;95822.47;;;21.59;26.25
10652;BME280;5374;42.742;23.266;2023-04-28T08:56:01;95789.88;;;21.11;26.14
10652;BME280;5374;42.742;23.266;2023-04-28T08:58:52;95816.72;;;21.30;24.70
10652;BME280;5374;42.742;23.266;2023-04-28T09:01:40;95825.69;;;21.39;25.14
10652;BME280;5374;42.742;23.266;2023-04-28T09:04:28;95818.50;;;21.34;27.33
10652;BME280;5374;42.742;23.266;2023-04-28T09:07:15;95810.00;;;21.49;25.16
10652;BME280;5374;42.742;23.266;2023-04-28T09:10:15;95797.91;;;21.47;26.18
10652;BME280;5374;42.742;23.266;2023-04-28T09:13:03;95795.00;;;21.35;26.15
10652;BME280;5374;42.742;23.266;2023-04-28T09:15:59;95796.31;;;21.01;25.29
10652;BME280;5374;42.742;23.266;2023-04-28T09:18:55;95797.09;;;20.79;28.37
10652;BME280;5374;42.742;23.266;2023-04-28T09:21:48;95792.53;;;20.17;27.00
10652;BME280;5374;42.742;23.266;2023-04-28T09:24:37;95790.78;;;20.34;27.45
10652;BME280;5374;42.742;23.266;2023-04-28T09:27:27;95791.63;;;20.21;28.24
10652;BME280;5374;42.742;23.266;2023-04-28T09:30:15;95780.56;;;20.09;29.39
10652;BME280;5374;42.742;23.266;2023-04-28T09:33:04;95779.13;;;20.11;27.13
10652;BME280;5374;42.742;23.266;2023-04-28T09:35:53;95775.34;;;20.26;28.51
10652;BME280;5374;42.742;23.266;2023-04-28T09:38:42;95784.44;;;20.17;29.70
10652;BME280;5374;42.742;23.266;2023-04-28T09:41:36;95762.69;;;19.99;28.35
10652;BME280;5374;42.742;23.266;2023-04-28T09:44:25;95764.09;;;19.97;29.50
10652;BME280;5374;42.742;23.266;2023-04-28T09:47:19;95762.50;;;19.96;28.81
10652;BME280;5374;42.742;23.266;2023-04-28T09:50:09;95760.38;;;19.93;28.49
10652;BME280;5374;42.742;23.266;2023-04-28T09:52:59;95753.88;;;20.21;28.55
10652;BME280;5374;42.742;23.266;2023-04-28T09:55:49;95759.78;;;20.09;26.96
10652;BME280;5374;42.742;23.266;2023-04-28T09:58:39;95755.69;;;19.98;26.26
10652;BME280;5374;42.742;23.266;2023-04-28T10:01:30;95748.94;;;19.87;27.12
10652;BME280;5374;42.742;23.266;2023-04-28T10:04:18;95744.31;;;20.01;26.83
10652;BME280;5374;42.742;23.266;2023-04-28T10:07:07;95736.25;;;19.88;26.18
10652;BME280;5374;42.742;23.266;2023-04-28T10:09:55;95739.75;;;19.74;28.86
10652;BME280;5374;42.742;23.266;2023-04-28T10:12:43;95737.72;;;19.94;26.28
10652;BME280;5374;42.742;23.266;2023-04-28T10:15:31;95727.75;;;20.08;26.97
10652;BME280;5374;42.742;23.266;2023-04-28T10:18:21;95738.00;;;20.20;25.55
10652;BME280;5374;42.742;23.266;2023-04-28T10:21:09;95726.31;;;20.24;26.87
10652;BME280;5374;42.742;23.266;2023-04-28T10:24:14;95735.88;;;20.30;26.87
10652;BME280;5374;42.742;23.266;2023-04-28T10:27:07;95722.94;;;20.05;27.41
10652;BME280;5374;42.742;23.266;2023-04-28T10:30:09;95721.94;;;20.01;26.58
10652;BME280;5374;42.742;23.266;2023-04-28T10:33:21;95720.16;;;19.96;26.11
10652;BME280;5374;42.742;23.266;2023-04-28T10:36:10;95719.94;;;20.06;28.70
10652;BME280;5374;42.742;23.266;2023-04-28T10:39:10;95705.63;;;19.84;26.56
10652;BME280;5374;42.742;23.266;2023-04-28T10:41:58;95700.31;;;19.51;26.99
10652;BME280;5374;42.742;23.266;2023-04-28T10:44:45;95693.84;;;19.79;26.68
10652;BME280;5374;42.742;23.266;2023-04-28T10:47:58;95689.59;;;20.01;28.59
10652;BME280;5374;42.742;23.266;2023-04-28T10:51:22;95695.94;;;19.83;28.28
10652;BME280;5374;42.742;23.266;2023-04-28T10:54:15;95684.81;;;19.98;27.88
10652;BME280;5374;42.742;23.266;2023-04-28T10:57:19;95677.81;;;19.97;28.67
10652;BME280;5374;42.742;23.266;2023-04-28T11:00:25;95677.88;;;20.19;28.72
10652;BME280;5374;42.742;23.266;2023-04-28T11:03:38;95681.81;;;19.99;28.41
10652;BME280;5374;42.742;23.266;2023-04-28T11:06:32;95682.97;;;20.21;28.25
10652;BME280;5374;42.742;23.266;2023-04-28T11:09:48;95679.75;;;20.32;26.90
10652;BME280;5374;42.742;23.266;2023-04-28T11:16:12;95672.97;;;20.21;26.27
10652;BME280;5374;42.742;23.266;2023-04-28T11:19:00;95666.28;;;20.19;25.91
10652;BME280;5374;42.742;23.266;2023-04-28T11:21:51;95659.69;;;20.11;26.84
10652;BME280;5374;42.742;23.266;2023-04-28T11:24:38;95654.00;;;20.12;27.79
10652;BME280;5374;42.742;23.266;2023-04-28T11:27:28;95657.38;;;20.18;27.20
10652;BME280;5374;42.742;23.266;2023-04-28T11:30:19;95659.41;;;20.12;27.86
10652;BME280;5374;42.742;23.266;2023-04-28T11:33:08;95651.75;;;20.06;25.96
10652;BME280;5374;42.742;23.266;2023-04-28T11:35:55;95644.47;;;19.93;25.99
10652;BME280;5374;42.742;23.266;2023-04-28T11:38:43;95642.66;;;20.02;29.50
10652;BME280;5374;42.742;23.266;2023-04-28T11:41:30;95641.81;;;20.15;28.25
10652;BME280;5374;42.742;23.266;2023-04-28T11:44:22;95629.28;;;20.10;28.35
10652;BME280;5374;42.742;23.266;2023-04-28T11:47:09;95633.16;;;19.68;27.05
10652;BME280;5374;42.742;23.266;2023-04-28T11:49:57;95626.50;;;19.38;29.08
10652;BME280;5374;42.742;23.266;2023-04-28T11:52:48;95625.19;;;19.63;28.22
10652;BME280;5374;42.742;23.266;2023-04-28T11:55:35;95621.28;;;19.69;28.35
10652;BME280;5374;42.742;23.266;2023-04-28T11:58:22;95620.53;;;19.91;29.21
10652;BME280;5374;42.742;23.266;2023-04-28T12:01:12;95610.69;;;19.87;27.08
10652;BME280;5374;42.742;23.266;2023-04-28T12:04:00;95620.41;;;19.96;28.99
10652;BME280;5374;42.742;23.266;2023-04-28T12:06:57;95620.50;;;20.05;28.03
10652;BME280;5374;42.742;23.266;2023-04-28T12:09:47;95594.00;;;19.85;26.54
10652;BME280;5374;42.742;23.266;2023-04-28T12:12:34;95606.22;;;19.68;26.88
10652;BME280;5374;42.742;23.266;2023-04-28T12:15:21;95605.59;;;19.85;28.36
10652;BME280;5374;42.742;23.266;2023-04-28T12:18:11;95604.13;;;20.01;28.02
10652;BME280;5374;42.742;23.266;2023-04-28T12:21:01;95606.22;;;20.04;27.79
10652;BME280;5374;42.742;23.266;2023-04-28T12:23:48;95590.56;;;19.93;27.88
10652;BME280;5374;42.742;23.266;2023-04-28T12:26:36;95594.69;;;20.12;27.85
10652;BME280;5374;42.742;23.266;2023-04-28T12:29:44;95601.19;;;20.34;27.57
10652;BME280;5374;42.742;23.266;2023-04-28T12:32:38;95585.38;;;19.96;28.56
10652;BME280;5374;42.742;23.266;2023-04-28T12:35:28;95575.47;;;19.69;28.67
10652;BME280;5374;42.742;23.266;2023-04-28T12:38:15;95584.25;;;19.75;28.37
10652;BME280;5374;42.742;23.266;2023-04-28T12:41:03;95583.19;;;19.62;27.38
10652;BME280;5374;42.742;23.266;2023-04-28T12:43:50;95576.50;;;19.96;28.32
10652;BME280;5374;42.742;23.266;2023-04-28T12:46:38;95569.88;;;19.79;28.45
10652;BME280;5374;42.742;23.266;2023-04-28T12:49:25;95571.47;;;19.80;28.85
10652;BME280;5374;42.742;23.266;2023-04-28T12:52:15;95552.47;;;19.86;27.29
10652;BME280;5374;42.742;23.266;2023-04-28T12:55:02;95567.19;;;20.02;28.63
10652;BME280;5374;42.742;23.266;2023-04-28T12:57:49;95546.66;;;19.92;28.12
10652;BME280;5374;42.742;23.266;2023-04-28T13:00:36;95564.88;;;20.09;27.33
10652;BME280;5374;42.742;23.266;2023-04-28T13:03:23;95555.03;;;20.13;27.65
10652;BME280;5374;42.742;23.266;2023-04-28T13:06:12;95555.28;;;20.25;27.41
10652;BME280;5374;42.742;23.266;2023-04-28T13:09:01;95550.72;;;20.34;27.29
10652;BME280;5374;42.742;23.266;2023-04-28T13:11:48;95547.72;;;20.05;28.01
10652;BME280;5374;42.742;23.266;2023-04-28T13:14:38;95539.34;;;20.15;27.71
10652;BME280;5374;42.742;23.266;2023-04-28T13:17:25;95542.66;;;20.12;28.36
10652;BME280;5374;42.742;23.266;2023-04-28T13:20:13;95539.97;;;20.12;28.17
10652;BME280;5374;42.742;23.266;2023-04-28T13:23:00;95543.41;;;20.26;26.90
10652;BME280;5374;42.742;23.266;2023-04-28T13:25:49;95536.16;;;20.13;26.96
10652;BME280;5374;42.742;23.266;2023-04-28T13:28:36;95542.41;;;20.22;27.66
10652;BME280;5374;42.742;23.266;2023-04-28T13:31:23;95537.53;;;20.24;27.78
10652;BME280;5374;42.742;23.266;2023-04-28T13:34:11;95527.34;;;20.21;27.54
10652;BME280;5374;42.742;23.266;2023-04-28T13:37:00;95533.44;;;20.35;26.78
10652;BME280;5374;42.742;23.266;2023-04-28T13:39:48;95518.53;;;20.29;27.76
10652;BME280;5374;42.742;23.266;2023-04-28T13:42:36;95532.13;;;20.24;27.76
10652;BME280;5374;42.742;23.266;2023-04-28T13:45:23;95518.84;;;20.36;27.52
10652;BME280;5374;42.742;23.266;2023-04-28T13:48:11;95527.03;;;20.45;27.26
10652;BME280;5374;42.742;23.266;2023-04-28T13:50:58;95519.25;;;20.43;27.43
10652;BME280;5374;42.742;23.266;2023-04-28T13:53:45;95512.31;;;20.29;27.40
10652;BME280;5374;42.742;23.266;2023-04-28T13:56:32;95524.75;;;20.16;28.13
10652;BME280;5374;42.742;23.266;2023-04-28T13:59:22;95518.06;;;20.05;27.44
10652;BME280;5374;42.742;23.266;2023-04-28T14:02:09;95508.84;;;20.06;27.52
10652;BME280;5374;42.742;23.266;2023-04-28T14:04:56;95507.97;;;20.19;27.60
10652;BME280;5374;42.742;23.266;2023-04-28T14:07:43;95502.06;;;20.08;27.81
10652;BME280;5374;42.742;23.266;2023-04-28T14:10:31;95507.31;;;19.91;28.27
10652;BME280;5374;42.742;23.266;2023-04-28T14:13:18;95510.50;;;19.93;28.16
10652;BME280;5374;42.742;23.266;2023-04-28T14:16:07;95513.75;;;19.82;27.47
10652;BME280;5374;42.742;23.266;2023-04-28T14:18:55;95502.72;;;19.69;27.89
10652;BME280;5374;42.742;23.266;2023-04-28T14:21:42;95509.16;;;19.60;27.38
10652;BME280;5374;42.742;23.266;2023-04-28T14:24:29;95509.88;;;19.52;27.71
10652;BME280;5374;42.742;23.266;2023-04-28T14:27:16;95502.66;;;19.47;27.00
10652;BME280;5374;42.742;23.266;2023-04-28T14:30:04;95506.91;;;19.39;28.07
10652;BME280;5374;42.742;23.266;2023-04-28T14:32:53;95496.41;;;19.52;28.20
10652;BME280;5374;42.742;23.266;2023-04-28T14:35:40;95499.66;;;19.48;27.70
10652;BME280;5374;42.742;23.266;2023-04-28T14:38:28;95500.22;;;19.37;27.96
10652;BME280;5374;42.742;23.266;2023-04-28T14:41:15;95492.00;;;19.20;28.07
10652;BME280;5374;42.742;23.266;2023-04-28T14:44:02;95477.19;;;18.95;28.71
10652;BME280;5374;42.742;23.266;2023-04-28T14:46:49;95483.75;;;18.89;28.50
10652;BME280;5374;42.742;23.266;2023-04-28T14:49:38;95483.44;;;18.76;28.35
10652;BME280;5374;42.742;23.266;2023-04-28T14:52:26;95481.56;;;18.77;28.28
10652;BME280;5374;42.742;23.266;2023-04-28T14:55:14;95481.06;;;18.61;28.71
10652;BME280;5374;42.742;23.266;2023-04-28T14:58:01;95474.78;;;18.52;28.49
10652;BME280;5374;42.742;23.266;2023-04-28T15:00:49;95486.22;;;18.58;28.96